Overton RPC :: 200-B

liberation: 2021-09-11  07:30     latitude: 33.575198     longitude: -86.664147 38 birds
# LOFT PRING MILES ARRIVAL SPEED ToWin
1 VALHALLA LOFTS AU21-POP-0537 210.359 2021-09-11 12:25:57.936 1250.931 00:00:00
2 VALHALLA LOFTS IF21-VALH-0154 210.359 2021-09-11 12:26:02.287 1250.625 00:00:04
3 VALHALLA LOFTS AU21-ARPU-8997 210.359 2021-09-11 12:26:09.607 1250.110 00:00:12
4 VALHALLA LOFTS IF21-VALH-0111 210.359 2021-09-11 12:26:13.916 1249.807 00:00:16
5 VALHALLA LOFTS IF21-VALH-0107 210.359 2021-09-11 12:26:20.565 1249.339 00:00:23
6 PHILBETTER LOFT IF21-E-1430 204.506 2021-09-11 12:26:20.702 1214.568 00:08:37
7 VALHALLA LOFTS AU21-ARPU-8999 210.359 2021-09-11 12:34:59.228 1213.929 00:09:01
8 VALHALLA LOFTS IF21-VALH-0194 210.359 2021-09-11 12:40:08.211 1193.772 00:14:10
9 VALHALLA LOFTS IF21-E-1413 210.359 2021-09-11 12:40:15.605 1193.298 00:14:18
10 VALHALLA LOFTS IF21-VALH-0123 210.359 2021-09-11 12:40:18.261 1193.127 00:14:20
11 VALHALLA LOFTS IF21-E-1415 210.359 2021-09-11 12:41:58.903 1186.713 00:16:01
12 PHILBETTER LOFT IF21-E-1429 204.506 2021-09-11 12:37:28.933 1170.576 00:19:45
13 VALHALLA LOFTS IF21-E-1442 210.359 2021-09-11 12:46:26.777 1169.970 00:20:29
14 HONEY FARM LOFT IF21-FOYS-5476 178.062 2021-09-11 12:08:36.394 1124.844 00:28:05
15 VALHALLA LOFTS IF21-VALH-0116 210.359 2021-09-11 13:00:37.120 1119.818 00:34:39
16 VALHALLA LOFTS IF21-E-1496 210.359 2021-09-11 13:09:06.867 1091.763 00:43:09
17 VALHALLA LOFTS IF21-VALH-0118 210.359 2021-09-11 13:20:34.752 1056.060 00:54:37
18 LET IT GO LOFT IF21-E-1405 217.162 2021-09-11 13:35:30.538 1045.680 00:59:58
19 VALHALLA LOFTS IF21-VALH-0101 210.359 2021-09-11 14:12:37.729 919.538 01:46:40
20 VALHALLA LOFTS IF21-E-1499 210.359 2021-09-11 14:33:39.256 873.903 02:07:41
21 LET IT GO LOFT IF21-ORP-0409 217.162 2021-09-11 15:24:28.272 805.540 02:48:56
22 VALHALLA LOFTS IF21-E-1500 210.359 2021-09-11 15:35:49.076 762.081 03:09:51
23 PHILBETTER LOFT IF21-E-1560 204.506 2021-09-11 16:15:38.388 684.749 03:57:55
24 PHILBETTER LOFT IF21-E-1425 204.506 2021-09-11 16:54:07.970 638.026 04:36:24
25 VALHALLA LOFTS AU21-BREW-2151 210.359 2021-09-11 17:59:42.699 587.940 05:33:45
26 HONEY FARM LOFT AU21-NASH-9591 178.062 2021-09-11 16:35:48.762 574.170 04:55:17
27 PHILBETTER LOFT IF21-E-1426 204.506 2021-09-11 18:12:17.284 560.389 05:54:33
28 VALHALLA LOFTS IF21-VALH-0135 210.359 2021-09-11 18:38:51.351 553.531 06:12:53
HONEY FARM LOFT IF21-FOYS-5470 0 0000-00-00 00:00:00.000 0.000 00:00:00
HONEY FARM LOFT IF21-ORP-0436 0 0000-00-00 00:00:00.000 0.000 00:00:00
LET IT GO LOFT IF21-ORP-0403 0 0000-00-00 00:00:00.000 0.000 00:00:00
LET IT GO LOFT IF21-ORP-0408 0 0000-00-00 00:00:00.000 0.000 00:00:00
LET IT GO LOFT IF21-ORP-0414 0 0000-00-00 00:00:00.000 0.000 00:00:00
VALHALLA LOFTS IF21-E-1448 0 0000-00-00 00:00:00.000 0.000 00:00:00
VALHALLA LOFTS IF21-VALH-0130 0 0000-00-00 00:00:00.000 0.000 00:00:00
VALHALLA LOFTS IF21-VALH-0146 0 0000-00-00 00:00:00.000 0.000 00:00:00
VALHALLA LOFTS IF21-VALH-0184 0 0000-00-00 00:00:00.000 0.000 00:00:00
VALHALLA LOFTS IF21-VALH-0185 0 0000-00-00 00:00:00.000 0.000 00:00:00